TimeEST,TemperatureF,Dew PointF,Humidity,Sea Level PressureIn,VisibilityMPH,Wind Direction,Wind SpeedMPH,Gust SpeedMPH,PrecipitationIn,Events,Conditions,WindDirDegrees,DateUTC
12:54 AM,32.0,26.1,79,30.43,10.0,South,3.5,-,N/A,,Clear,190,2013-01-08 05:54:00
1:54 AM,30.0,25.0,82,30.42,10.0,Calm,Calm,-,N/A,,Clear,0,2013-01-08 06:54:00
2:54 AM,30.0,25.0,82,30.41,10.0,Calm,Calm,-,N/A,,Clear,0,2013-01-08 07:54:00
3:54 AM,30.0,25.0,82,30.41,10.0,Calm,Calm,-,N/A,,Clear,0,2013-01-08 08:54:00
4:54 AM,30.0,26.1,85,30.40,10.0,SW,3.5,-,N/A,,Clear,230,2013-01-08 09:54:00
5:08 AM,28.4,24.8,86,30.40,8.0,SW,3.5,-,N/A,,Clear,220,2013-01-08 10:08:00
5:54 AM,28.9,25.0,85,30.42,7.0,WSW,4.6,-,N/A,,Clear,240,2013-01-08 10:54:00
6:54 AM,30.0,26.1,85,30.43,7.0,South,6.9,-,N/A,,Partly Cloudy,190,2013-01-08 11:54:00
7:54 AM,30.9,27.0,85,30.44,7.0,SSW,4.6,-,N/A,,Partly Cloudy,210,2013-01-08 12:54:00
8:54 AM,34.0,28.9,82,30.45,7.0,SW,8.1,-,N/A,,Scattered Clouds,230,2013-01-08 13:54:00
9:49 AM,37.4,30.2,75,30.44,10.0,SW,9.2,-,N/A,,Scattered Clouds,220,2013-01-08 14:49:00
9:54 AM,39.0,30.9,73,30.44,10.0,SW,9.2,-,N/A,,Scattered Clouds,230,2013-01-08 14:54:00
10:54 AM,42.1,30.9,65,30.42,10.0,WSW,10.4,-,N/A,,Mostly Cloudy,240,2013-01-08 15:54:00
11:54 AM,45.0,30.9,58,30.40,10.0,SW,11.5,-,N/A,,Mostly Cloudy,220,2013-01-08 16:54:00
12:54 PM,46.0,32.0,58,30.38,10.0,WSW,15.0,-,N/A,,Mostly Cloudy,250,2013-01-08 17:54:00
1:54 PM,46.9,32.0,56,30.38,10.0,SW,12.7,-,N/A,,Mostly Cloudy,230,2013-01-08 18:54:00
2:54 PM,48.0,32.0,54,30.39,10.0,WSW,12.7,-,N/A,,Mostly Cloudy,250,2013-01-08 19:54:00
3:54 PM,48.0,30.9,52,30.40,10.0,WSW,6.9,-,N/A,,Mostly Cloudy,250,2013-01-08 20:54:00
4:54 PM,44.1,30.9,60,30.40,10.0,WSW,6.9,-,N/A,,Mostly Cloudy,250,2013-01-08 21:54:00
5:54 PM,44.1,30.0,58,30.40,10.0,SW,4.6,-,N/A,,Mostly Cloudy,230,2013-01-08 22:54:00
6:54 PM,41.0,30.0,65,30.40,10.0,Calm,Calm,-,N/A,,Partly Cloudy,0,2013-01-08 23:54:00
7:54 PM,39.9,30.9,70,30.41,10.0,SSW,4.6,-,N/A,,Partly Cloudy,200,2013-01-09 00:54:00
8:54 PM,41.0,30.9,67,30.39,10.0,Calm,Calm,-,N/A,,Mostly Cloudy,0,2013-01-09 01:54:00
9:54 PM,42.1,30.9,65,30.41,10.0,NNW,3.5,-,N/A,,Mostly Cloudy,340,2013-01-09 02:54:00
10:54 PM,39.9,30.9,70,30.40,10.0,NNE,3.5,-,N/A,,Mostly Cloudy,30,2013-01-09 03:54:00
11:54 PM,39.0,32.0,76,30.40,10.0,Calm,Calm,-,N/A,,Mostly Cloudy,0,2013-01-09 04:54:00